createdAt,value
2019-03-05T00:00:21.859Z,3.80
2019-03-05T00:02:49.797Z,3.83
2019-03-05T00:05:17.711Z,3.73
2019-03-05T00:07:45.524Z,3.80
2019-03-05T00:10:16.475Z,3.53
2019-03-05T00:12:44.374Z,4.03
2019-03-05T00:15:12.535Z,4.07
2019-03-05T00:17:40.317Z,3.87
2019-03-05T00:20:10.023Z,4.00
2019-03-05T00:22:37.901Z,3.20
2019-03-05T00:25:08.725Z,3.90
2019-03-05T00:28:36.535Z,3.73
2019-03-05T00:31:29.852Z,3.03
2019-03-05T00:34:22.230Z,4.00
2019-03-05T00:36:59.667Z,4.20
2019-03-05T00:40:13.949Z,4.50
2019-03-05T00:43:21.433Z,3.80
2019-03-05T00:46:20.099Z,4.47
2019-03-05T00:49:14.990Z,4.03
2019-03-05T00:52:21.679Z,5.10
2019-03-05T00:55:28.407Z,4.63
2019-03-05T00:58:32.381Z,4.93
2019-03-05T01:01:41.386Z,4.37
2019-03-05T01:04:32.452Z,5.73
2019-03-05T01:07:00.339Z,5.77
2019-03-05T01:09:28.659Z,4.53
2019-03-05T01:11:56.490Z,5.17
2019-03-05T01:14:24.833Z,5.93
2019-03-05T01:16:52.641Z,4.30
2019-03-05T01:19:20.517Z,3.97
2019-03-05T01:21:48.283Z,4.63
2019-03-05T01:24:16.294Z,5.30
2019-03-05T01:26:44.125Z,5.63
2019-03-05T01:29:11.914Z,4.17
2019-03-05T01:31:57.081Z,4.70
2019-03-05T01:34:36.009Z,5.23
2019-03-05T01:37:04.385Z,4.77
2019-03-05T01:40:00.534Z,5.07
2019-03-05T01:42:28.393Z,4.73
2019-03-05T01:44:56.173Z,4.30
2019-03-05T01:47:23.994Z,4.70
2019-03-05T01:49:51.907Z,4.33
2019-03-05T01:52:19.706Z,4.50
2019-03-05T01:54:47.509Z,4.63
2019-03-05T01:57:15.391Z,4.40
2019-03-05T01:59:43.279Z,5.00
2019-03-05T02:02:11.081Z,4.07
2019-03-05T02:04:39.394Z,4.17
2019-03-05T02:07:07.211Z,4.30
2019-03-05T02:09:34.992Z,4.93
2019-03-05T02:12:02.805Z,4.90
2019-03-05T02:14:30.978Z,3.77
2019-03-05T02:16:58.809Z,4.40
2019-03-05T02:19:40.942Z,5.00
2019-03-05T02:22:24.902Z,4.70
2019-03-05T02:25:25.774Z,3.97
2019-03-05T02:28:27.226Z,4.80
2019-03-05T02:31:32.737Z,3.40
2019-03-05T02:34:25.112Z,3.03
2019-03-05T02:37:45.484Z,3.87
2019-03-05T02:40:52.166Z,3.57
2019-03-05T02:43:34.489Z,2.87
2019-03-05T02:46:13.225Z,3.13
2019-03-05T02:49:22.337Z,3.57
2019-03-05T02:52:09.659Z,3.33
2019-03-05T02:55:16.432Z,3.60
2019-03-05T02:57:43.378Z,3.67
2019-03-05T03:00:14.111Z,3.27
2019-03-05T03:02:50.470Z,2.80
2019-03-05T03:05:40.453Z,3.10
2019-03-05T03:08:08.939Z,3.30
2019-03-05T03:10:36.887Z,3.53
2019-03-05T03:13:04.758Z,3.67
2019-03-05T03:15:32.585Z,3.30
2019-03-05T03:18:00.368Z,3.87
2019-03-05T03:20:28.201Z,3.67
2019-03-05T03:22:56.639Z,3.40
2019-03-05T03:25:24.514Z,3.17
2019-03-05T03:27:52.773Z,2.87
2019-03-05T03:30:24.990Z,2.30
2019-03-05T03:32:52.905Z,2.70
2019-03-05T03:35:20.981Z,2.87
2019-03-05T03:37:49.044Z,2.83
2019-03-05T03:40:19.029Z,2.63
2019-03-05T03:42:46.786Z,2.70
2019-03-05T03:45:16.907Z,3.33
2019-03-05T03:47:45.254Z,2.70
2019-03-05T03:50:13.162Z,3.27
2019-03-05T03:52:40.985Z,2.90
2019-03-05T03:55:10.101Z,3.10
2019-03-05T03:57:38.108Z,3.03
2019-03-05T04:00:07.832Z,2.57
2019-03-05T04:02:36.032Z,2.83
2019-03-05T04:05:05.306Z,3.10
2019-03-05T04:07:33.508Z,3.00
2019-03-05T04:10:01.731Z,2.80
2019-03-05T04:12:29.539Z,2.77
2019-03-05T04:14:57.315Z,2.67
2019-03-05T04:17:25.530Z,3.03
2019-03-05T04:19:53.281Z,2.70
2019-03-05T04:22:21.213Z,2.33
2019-03-05T04:24:49.052Z,2.83
2019-03-05T04:27:17.247Z,2.80
2019-03-05T04:29:45.138Z,2.63
2019-03-05T04:32:13.336Z,2.70
2019-03-05T04:34:41.705Z,2.70
2019-03-05T04:37:09.506Z,2.87
2019-03-05T04:39:37.371Z,2.80
2019-03-05T04:42:05.814Z,2.43
2019-03-05T04:44:40.165Z,2.40
2019-03-05T04:47:08.053Z,3.00
2019-03-05T04:49:53.310Z,2.20
2019-03-05T04:52:24.748Z,2.20
2019-03-05T04:54:52.553Z,2.63
2019-03-05T04:57:20.395Z,2.50
2019-03-05T04:59:48.327Z,2.50
2019-03-05T05:02:16.134Z,2.23
2019-03-05T05:04:44.018Z,2.20
2019-03-05T05:07:11.867Z,2.37
2019-03-05T05:09:39.693Z,2.80
2019-03-05T05:12:07.564Z,2.53
2019-03-05T05:14:35.381Z,2.13
2019-03-05T05:17:03.181Z,2.17
2019-03-05T05:19:31.027Z,2.40
2019-03-05T05:21:58.816Z,2.17
2019-03-05T05:24:26.777Z,2.50
2019-03-05T05:26:54.552Z,2.27
2019-03-05T05:29:22.340Z,2.47
2019-03-05T05:31:50.279Z,2.50
2019-03-05T05:34:18.079Z,2.30
2019-03-05T05:36:45.850Z,2.57
2019-03-05T05:39:50.354Z,2.60
2019-03-05T05:42:18.156Z,2.83
2019-03-05T05:44:46.029Z,2.43
2019-03-05T05:47:13.872Z,2.40
2019-03-05T05:49:41.668Z,2.80
2019-03-05T05:52:09.571Z,2.27
2019-03-05T05:54:37.479Z,3.03
2019-03-05T05:57:05.402Z,2.43
2019-03-05T05:59:33.228Z,2.20
2019-03-05T06:02:01.016Z,2.70
2019-03-05T06:04:28.944Z,2.90
2019-03-05T06:06:56.778Z,2.70
2019-03-05T06:09:24.629Z,2.30
2019-03-05T06:11:52.536Z,2.57
2019-03-05T06:14:20.341Z,2.43
2019-03-05T06:16:48.161Z,2.60
2019-03-05T06:19:16.069Z,2.30
2019-03-05T06:21:43.851Z,2.10
2019-03-05T06:24:11.666Z,2.80
2019-03-05T06:26:39.642Z,2.33
2019-03-05T06:29:07.435Z,2.50
2019-03-05T06:31:35.251Z,2.40
2019-03-05T06:34:03.162Z,2.20
2019-03-05T06:36:49.476Z,2.50
2019-03-05T06:39:17.362Z,2.17
2019-03-05T06:41:45.186Z,2.30
2019-03-05T06:44:13.060Z,2.20
2019-03-05T06:46:40.943Z,2.20
2019-03-05T06:49:08.752Z,2.60
2019-03-05T06:51:36.578Z,2.30
2019-03-05T06:54:04.479Z,2.60
2019-03-05T06:56:32.259Z,2.70
2019-03-05T06:59:00.051Z,2.83
2019-03-05T07:01:27.900Z,2.50
2019-03-05T07:03:55.708Z,2.27
2019-03-05T07:07:07.353Z,2.30
2019-03-05T07:09:39.044Z,2.50
2019-03-05T07:12:14.399Z,2.60
2019-03-05T07:14:59.395Z,2.67
2019-03-05T07:17:40.610Z,2.50
2019-03-05T07:20:46.927Z,2.20
2019-03-05T07:23:25.320Z,2.70
2019-03-05T07:25:53.191Z,2.17
2019-03-05T07:28:21.086Z,2.13
2019-03-05T07:30:48.898Z,2.20
2019-03-05T07:33:16.709Z,2.30
2019-03-05T07:35:44.708Z,2.70
2019-03-05T07:38:12.514Z,2.33
2019-03-05T07:40:41.560Z,2.67
2019-03-05T07:43:09.364Z,2.50
2019-03-05T07:45:37.170Z,2.13
2019-03-05T07:48:05.033Z,2.60
2019-03-05T07:50:32.835Z,2.40
2019-03-05T07:53:01.327Z,2.50
2019-03-05T07:55:29.140Z,2.67
2019-03-05T07:57:56.941Z,2.43
2019-03-05T08:00:24.771Z,2.70
2019-03-05T08:02:58.093Z,2.60
2019-03-05T08:05:25.986Z,2.50
2019-03-05T08:07:54.132Z,2.53
2019-03-05T08:10:27.560Z,2.23
2019-03-05T08:13:26.084Z,2.73
2019-03-05T08:16:10.346Z,2.57
2019-03-05T08:18:38.233Z,2.30
2019-03-05T08:21:06.230Z,2.77
2019-03-05T08:23:34.103Z,2.60
2019-03-05T08:26:02.048Z,2.70
2019-03-05T08:28:29.859Z,2.27
2019-03-05T08:30:57.763Z,2.30
2019-03-05T08:33:25.642Z,2.50
2019-03-05T08:35:53.432Z,2.57
2019-03-05T08:38:21.289Z,2.67
2019-03-05T08:40:49.171Z,2.10
2019-03-05T08:43:17.122Z,2.57
2019-03-05T08:45:44.928Z,2.70
2019-03-05T08:48:12.782Z,2.10
2019-03-05T08:50:40.775Z,2.30
2019-03-05T08:53:08.710Z,2.20
2019-03-05T08:55:36.523Z,2.30
2019-03-05T08:58:05.102Z,2.07
2019-03-05T09:00:34.591Z,2.03
2019-03-05T09:03:02.617Z,2.63
2019-03-05T09:05:30.586Z,2.67
2019-03-05T09:07:59.891Z,2.50
2019-03-05T09:10:28.410Z,2.50
2019-03-05T09:12:57.488Z,2.57
2019-03-05T09:15:25.306Z,2.20
2019-03-05T09:17:53.355Z,2.60
2019-03-05T09:20:21.232Z,2.53
2019-03-05T09:22:49.058Z,2.30
2019-03-05T09:25:17.035Z,2.20
2019-03-05T09:27:44.926Z,2.50
2019-03-05T09:30:15.610Z,3.00
2019-03-05T09:32:43.490Z,2.13
2019-03-05T09:35:11.787Z,2.10
2019-03-05T09:37:39.630Z,2.70
2019-03-05T09:40:11.084Z,2.40
2019-03-05T09:42:40.226Z,2.30
2019-03-05T09:45:10.206Z,2.23
2019-03-05T09:47:38.056Z,2.10
2019-03-05T09:50:06.750Z,2.57
2019-03-05T09:52:34.564Z,2.07
2019-03-05T09:55:02.386Z,2.40
2019-03-05T09:57:30.211Z,2.20
2019-03-05T09:59:58.070Z,2.23
2019-03-05T10:02:25.914Z,2.10
2019-03-05T10:04:53.731Z,2.40
2019-03-05T10:07:21.576Z,2.40
2019-03-05T10:09:49.453Z,2.30
2019-03-05T10:12:17.293Z,2.50
2019-03-05T10:14:45.078Z,2.30
2019-03-05T10:17:12.959Z,2.40
2019-03-05T10:19:40.740Z,2.40
2019-03-05T10:22:08.991Z,2.27
2019-03-05T10:24:36.820Z,2.63
2019-03-05T10:27:04.714Z,2.40
2019-03-05T10:29:32.626Z,2.30
2019-03-05T10:32:00.467Z,2.30
2019-03-05T10:34:28.285Z,2.40
2019-03-05T10:36:56.116Z,2.60
2019-03-05T10:39:30.641Z,2.33
2019-03-05T10:41:55.606Z,2.50
2019-03-05T10:44:23.505Z,2.23
2019-03-05T10:46:51.397Z,2.20
2019-03-05T10:49:19.370Z,2.50
2019-03-05T10:51:47.263Z,2.40
2019-03-05T10:54:15.046Z,2.23
2019-03-05T10:56:42.973Z,2.70
2019-03-05T10:59:10.796Z,2.77
2019-03-05T11:01:39.778Z,2.70
2019-03-05T11:04:07.726Z,2.30
2019-03-05T11:06:35.527Z,2.40
2019-03-05T11:09:04.631Z,2.70
2019-03-05T11:11:32.441Z,2.87
2019-03-05T11:14:00.246Z,2.43
2019-03-05T11:16:31.052Z,2.53
2019-03-05T11:18:57.631Z,2.40
2019-03-05T11:21:25.478Z,2.40
2019-03-05T11:23:53.257Z,2.40
2019-03-05T11:26:21.059Z,2.63
2019-03-05T11:28:48.871Z,2.20
2019-03-05T11:31:16.678Z,2.23
2019-03-05T11:33:44.535Z,2.00
2019-03-05T11:36:12.430Z,2.00
2019-03-05T11:38:40.214Z,2.13
2019-03-05T11:41:08.079Z,2.53
2019-03-05T11:43:35.998Z,2.50
2019-03-05T11:46:06.717Z,2.63
2019-03-05T11:48:34.549Z,2.40
2019-03-05T11:51:02.334Z,2.20
2019-03-05T11:53:30.129Z,2.53
2019-03-05T11:55:57.982Z,2.20
2019-03-05T11:58:25.791Z,2.57
2019-03-05T12:01:00.788Z,2.57
2019-03-05T12:03:28.581Z,2.20
2019-03-05T12:05:56.531Z,2.13
2019-03-05T12:08:24.342Z,2.40
2019-03-05T12:10:52.150Z,2.70
2019-03-05T12:13:20.060Z,2.60
2019-03-05T12:15:47.867Z,2.43
2019-03-05T12:18:15.714Z,2.00
2019-03-05T12:20:43.573Z,2.13
2019-03-05T12:23:11.841Z,2.50
2019-03-05T12:25:41.355Z,2.30
2019-03-05T12:28:10.548Z,2.43
2019-03-05T12:30:38.943Z,2.30
2019-03-05T12:33:06.833Z,2.50
2019-03-05T12:35:37.137Z,2.37
2019-03-05T12:38:05.054Z,2.57
2019-03-05T12:40:33.306Z,2.73
2019-03-05T12:43:03.539Z,2.67
2019-03-05T12:45:31.421Z,2.80
2019-03-05T12:47:59.297Z,2.50
2019-03-05T12:50:27.210Z,2.80
2019-03-05T12:52:55.231Z,2.53
2019-03-05T12:55:23.294Z,2.40
2019-03-05T12:57:51.189Z,2.50
2019-03-05T13:00:20.675Z,2.47
2019-03-05T13:02:48.766Z,3.07
2019-03-05T13:05:16.591Z,2.77
2019-03-05T13:07:44.428Z,2.10
2019-03-05T13:10:14.599Z,2.00
2019-03-05T13:12:42.533Z,2.27
2019-03-05T13:15:12.088Z,2.17
2019-03-05T13:17:39.867Z,2.87
2019-03-05T13:20:09.954Z,2.60
2019-03-05T13:22:37.768Z,2.43
2019-03-05T13:25:06.001Z,2.87
2019-03-05T13:27:33.841Z,2.90
2019-03-05T13:30:01.641Z,2.23
2019-03-05T13:32:29.434Z,2.60
2019-03-05T13:34:57.296Z,3.50
2019-03-05T13:37:28.319Z,2.57
2019-03-05T13:39:54.955Z,2.90
2019-03-05T13:42:24.398Z,2.70
2019-03-05T13:44:52.202Z,5.73
2019-03-05T13:47:20.022Z,5.13
2019-03-05T13:50:31.390Z,2.73
2019-03-05T13:53:23.981Z,3.00
2019-03-05T13:56:32.949Z,3.13
2019-03-05T13:59:30.693Z,2.67
2019-03-05T14:01:58.518Z,2.53
2019-03-05T14:04:31.370Z,2.70
2019-03-05T14:07:36.820Z,2.50
2019-03-05T14:10:04.989Z,2.60
2019-03-05T14:12:32.818Z,3.13
2019-03-05T14:15:00.668Z,2.40
2019-03-05T14:17:30.450Z,2.70
2019-03-05T14:19:58.264Z,3.10
2019-03-05T14:22:26.182Z,3.43
2019-03-05T14:25:02.026Z,2.97
2019-03-05T14:27:23.672Z,6.50
2019-03-05T14:29:51.470Z,3.20
2019-03-05T14:32:19.264Z,5.17
2019-03-05T14:34:57.155Z,3.60
2019-03-05T14:37:25.035Z,2.60
2019-03-05T14:39:52.947Z,3.20
2019-03-05T14:42:20.769Z,2.67
2019-03-05T14:44:48.587Z,2.80
2019-03-05T14:47:16.494Z,2.83
2019-03-05T14:49:44.320Z,2.47
2019-03-05T14:52:12.207Z,2.53
2019-03-05T14:54:40.033Z,2.37
2019-03-05T14:57:07.841Z,2.83
2019-03-05T14:59:35.667Z,2.67
2019-03-05T15:02:03.482Z,1.83
2019-03-05T15:04:31.330Z,2.73
2019-03-05T15:06:59.768Z,2.60
2019-03-05T15:09:27.786Z,2.10
2019-03-05T15:11:55.649Z,2.50
2019-03-05T15:14:23.459Z,2.67
2019-03-05T15:16:51.292Z,2.40
2019-03-05T15:19:21.753Z,3.83
2019-03-05T15:21:48.755Z,2.70
2019-03-05T15:24:16.579Z,2.37
2019-03-05T15:26:44.395Z,3.07
2019-03-05T15:29:12.312Z,2.93
2019-03-05T15:31:40.134Z,2.40
2019-03-05T15:34:08.029Z,2.60
2019-03-05T15:36:35.909Z,2.60
2019-03-05T15:39:05.025Z,2.83
2019-03-05T15:41:32.874Z,3.40
2019-03-05T15:44:00.765Z,3.40
2019-03-05T15:46:28.524Z,3.13
2019-03-05T15:48:56.399Z,2.90
2019-03-05T15:51:24.209Z,2.40
2019-03-05T15:53:52.008Z,2.40
2019-03-05T15:56:19.831Z,2.90
2019-03-05T15:58:47.627Z,3.10
2019-03-05T16:01:22.045Z,2.67
2019-03-05T16:03:45.325Z,3.20
2019-03-05T16:06:14.057Z,3.00
2019-03-05T16:08:42.196Z,2.80
2019-03-05T16:11:09.998Z,2.90
2019-03-05T16:13:38.923Z,3.10
2019-03-05T16:16:07.209Z,3.17
2019-03-05T16:18:39.044Z,2.90
2019-03-05T16:21:06.960Z,3.27
2019-03-05T16:23:35.042Z,3.00
2019-03-05T16:26:02.843Z,2.77
2019-03-05T16:28:30.806Z,2.93
2019-03-05T16:31:13.210Z,2.90
2019-03-05T16:34:15.844Z,2.90
2019-03-05T16:36:57.409Z,3.00
2019-03-05T16:39:47.632Z,2.80
2019-03-05T16:42:34.857Z,2.97
2019-03-05T16:45:31.303Z,2.50
2019-03-05T16:48:18.558Z,3.07
2019-03-05T16:50:56.420Z,2.77
2019-03-05T16:53:46.574Z,2.70
2019-03-05T16:56:32.618Z,3.07
2019-03-05T16:59:28.537Z,2.70
2019-03-05T17:02:09.170Z,2.90
2019-03-05T17:04:54.997Z,2.83
2019-03-05T17:07:51.551Z,2.47
2019-03-05T17:10:47.577Z,2.90
2019-03-05T17:13:15.434Z,2.77
2019-03-05T17:15:43.271Z,2.57
2019-03-05T17:18:11.120Z,2.90
2019-03-05T17:20:38.998Z,3.00
2019-03-05T17:23:07.125Z,2.83
2019-03-05T17:25:34.990Z,4.43
2019-03-05T17:28:02.972Z,4.10
2019-03-05T17:30:30.770Z,4.73
2019-03-05T17:32:58.555Z,2.60
2019-03-05T17:35:26.457Z,2.80
2019-03-05T17:37:54.255Z,3.10
2019-03-05T17:40:22.080Z,3.10
2019-03-05T17:42:50.265Z,2.67
2019-03-05T17:45:19.243Z,3.47
2019-03-05T17:47:47.083Z,3.50
2019-03-05T17:50:15.248Z,3.57
2019-03-05T17:52:43.450Z,3.93
2019-03-05T17:55:23.597Z,4.00
2019-03-05T17:57:43.690Z,4.70
2019-03-05T18:00:15.711Z,3.00
2019-03-05T18:02:43.578Z,3.70
2019-03-05T18:05:11.497Z,3.50
2019-03-05T18:07:39.303Z,3.90
2019-03-05T18:10:08.180Z,3.77
2019-03-05T18:12:36.301Z,4.33
2019-03-05T18:15:04.952Z,3.60
2019-03-05T18:17:33.592Z,3.03
2019-03-05T18:20:01.430Z,3.37
2019-03-05T18:22:29.239Z,3.43
2019-03-05T18:24:57.089Z,4.60
2019-03-05T18:27:24.995Z,3.33
2019-03-05T18:29:52.984Z,4.47
2019-03-05T18:32:20.826Z,3.67
2019-03-05T18:34:48.754Z,4.00
2019-03-05T18:37:16.753Z,3.63
2019-03-05T18:39:44.903Z,3.70
2019-03-05T18:42:12.827Z,4.27
2019-03-05T18:44:40.762Z,8.20
2019-03-05T18:47:08.672Z,3.40
2019-03-05T18:49:36.506Z,3.70
2019-03-05T18:52:04.900Z,3.27
2019-03-05T18:54:32.751Z,3.23
2019-03-05T18:57:00.610Z,3.20
2019-03-05T18:59:28.501Z,3.63
2019-03-05T19:01:56.870Z,3.40
2019-03-05T19:04:24.891Z,3.10
2019-03-05T19:06:52.885Z,3.03
2019-03-05T19:09:21.361Z,3.20
2019-03-05T19:11:49.268Z,3.60
2019-03-05T19:14:17.073Z,3.50
2019-03-05T19:16:45.097Z,3.00
2019-03-05T19:19:12.951Z,3.10
2019-03-05T19:21:40.922Z,3.47
2019-03-05T19:24:09.394Z,3.00
2019-03-05T19:26:37.283Z,3.07
2019-03-05T19:29:05.255Z,3.20
2019-03-05T19:31:33.315Z,3.53
2019-03-05T19:34:01.222Z,3.07
2019-03-05T19:36:29.180Z,3.60
2019-03-05T19:38:57.401Z,3.40
2019-03-05T19:41:25.777Z,3.00
2019-03-05T19:43:53.773Z,3.07
2019-03-05T19:46:21.541Z,3.10
2019-03-05T19:48:49.377Z,3.20
2019-03-05T19:51:17.444Z,3.40
2019-03-05T19:53:45.858Z,3.10
2019-03-05T19:56:14.195Z,3.33
2019-03-05T19:58:43.423Z,3.30
2019-03-05T20:01:17.275Z,3.20
2019-03-05T20:03:45.150Z,3.30
2019-03-05T20:06:14.922Z,3.07
2019-03-05T20:08:43.101Z,3.37
2019-03-05T20:11:11.212Z,3.27
2019-03-05T20:13:39.603Z,3.73
2019-03-05T20:16:08.065Z,3.67
2019-03-05T20:18:36.447Z,3.57
2019-03-05T20:21:04.926Z,3.63
2019-03-05T20:23:34.857Z,3.80
2019-03-05T20:26:02.566Z,3.80
2019-03-05T20:28:30.442Z,3.57
2019-03-05T20:30:58.300Z,3.40
2019-03-05T20:33:26.192Z,3.80
2019-03-05T20:35:54.083Z,3.30
2019-03-05T20:38:22.132Z,3.30
2019-03-05T20:40:49.964Z,3.40
2019-03-05T20:43:17.807Z,3.50
2019-03-05T20:45:45.782Z,4.30
2019-03-05T20:48:14.272Z,7.93
2019-03-05T20:50:42.114Z,4.17
2019-03-05T20:53:10.445Z,4.33
2019-03-05T20:55:38.821Z,3.90
2019-03-05T20:58:07.163Z,4.33
2019-03-05T21:00:35.421Z,4.70
2019-03-05T21:03:03.923Z,13.60
2019-03-05T21:05:36.655Z,13.00
2019-03-05T21:08:04.858Z,16.23
2019-03-05T21:10:32.734Z,5.80
2019-03-05T21:13:02.709Z,5.33
2019-03-05T21:15:31.038Z,5.17
2019-03-05T21:17:58.864Z,4.67
2019-03-05T21:20:27.304Z,3.63
2019-03-05T21:22:55.168Z,11.10
2019-03-05T21:25:23.443Z,5.67
2019-03-05T21:27:51.816Z,8.57
2019-03-05T21:30:19.888Z,4.50
2019-03-05T21:32:47.797Z,4.53
2019-03-05T21:35:16.502Z,3.90
2019-03-05T21:37:44.457Z,4.00
2019-03-05T21:40:15.042Z,4.10
2019-03-05T21:42:42.966Z,3.90
2019-03-05T21:45:11.748Z,3.93
2019-03-05T21:47:39.595Z,3.83
2019-03-05T21:50:08.654Z,3.87
2019-03-05T21:52:36.516Z,4.57
2019-03-05T21:55:05.159Z,3.70
2019-03-05T21:57:32.957Z,3.87
2019-03-05T22:00:00.836Z,4.33
2019-03-05T22:02:28.654Z,4.10
2019-03-05T22:04:56.872Z,3.80
2019-03-05T22:07:24.710Z,4.20
2019-03-05T22:09:52.506Z,5.30
2019-03-05T22:12:20.364Z,5.17
2019-03-05T22:14:48.313Z,5.13
2019-03-05T22:17:16.116Z,6.83
2019-03-05T22:19:43.907Z,7.33
2019-03-05T22:22:11.819Z,5.70
2019-03-05T22:24:39.651Z,5.77
2019-03-05T22:27:07.438Z,4.93
2019-03-05T22:29:35.263Z,4.90
2019-03-05T22:32:03.252Z,4.90
2019-03-05T22:34:31.063Z,4.80
2019-03-05T22:36:58.879Z,5.20
2019-03-05T22:39:26.689Z,4.50
2019-03-05T22:41:54.567Z,3.90
2019-03-05T22:44:22.902Z,4.53
2019-03-05T22:46:50.812Z,5.10
2019-03-05T22:49:18.633Z,4.20
2019-03-05T22:51:46.426Z,4.03
2019-03-05T22:54:14.229Z,4.07
2019-03-05T22:56:42.107Z,4.30
2019-03-05T22:59:09.913Z,4.30
2019-03-05T23:01:39.693Z,5.40
2019-03-05T23:04:08.804Z,5.47
2019-03-05T23:06:36.907Z,5.70
2019-03-05T23:09:13.570Z,5.93
2019-03-05T23:11:41.439Z,4.30
2019-03-05T23:14:09.220Z,3.90
2019-03-05T23:16:36.999Z,4.30
2019-03-05T23:19:04.929Z,4.10
2019-03-05T23:21:32.759Z,4.53
2019-03-05T23:24:00.598Z,4.00
2019-03-05T23:26:28.464Z,4.17
2019-03-05T23:28:56.324Z,4.07
2019-03-05T23:31:24.205Z,3.90
2019-03-05T23:33:52.027Z,4.03
2019-03-05T23:36:19.831Z,4.00
2019-03-05T23:38:47.647Z,3.90
2019-03-05T23:41:15.431Z,4.20
2019-03-05T23:43:43.260Z,4.40
2019-03-05T23:46:11.247Z,4.00
2019-03-05T23:48:39.057Z,4.33
2019-03-05T23:51:06.879Z,4.10
2019-03-05T23:53:34.813Z,4.07
2019-03-05T23:56:02.644Z,4.30
2019-03-05T23:58:30.474Z,3.83
